createdAt,value
2019-03-28T00:00:09.679Z,85.13
2019-03-28T00:02:43.624Z,94.57
2019-03-28T00:05:14.695Z,97.17
2019-03-28T00:07:45.794Z,102.80
2019-03-28T00:10:16.817Z,99.97
2019-03-28T00:12:47.849Z,107.87
2019-03-28T00:15:18.977Z,97.27
2019-03-28T00:17:50.169Z,99.50
2019-03-28T00:20:21.324Z,106.30
2019-03-28T00:23:01.194Z,105.93
2019-03-28T00:25:32.350Z,99.07
2019-03-28T00:28:04.864Z,100.80
2019-03-28T00:30:35.935Z,109.63
2019-03-28T00:33:07.042Z,97.03
2019-03-28T00:35:38.151Z,89.40
2019-03-28T00:38:09.388Z,94.93
2019-03-28T00:40:40.499Z,90.80
2019-03-28T00:43:12.790Z,98.53
2019-03-28T00:45:44.654Z,87.63
2019-03-28T00:48:15.956Z,103.40
2019-03-28T00:50:47.024Z,94.77
2019-03-28T00:53:18.048Z,97.70
2019-03-28T00:55:49.248Z,99.70
2019-03-28T00:58:20.348Z,106.57
2019-03-28T01:00:53.013Z,97.53
2019-03-28T01:03:24.081Z,96.27
2019-03-28T01:05:55.336Z,92.83
2019-03-28T01:08:26.395Z,92.33
2019-03-28T01:10:57.489Z,94.43
2019-03-28T01:13:28.653Z,93.10
2019-03-28T01:15:59.827Z,76.03
2019-03-28T01:18:31.047Z,81.27
2019-03-28T01:21:02.261Z,79.87
2019-03-28T01:23:33.346Z,77.73
2019-03-28T01:26:04.371Z,82.33
2019-03-28T01:28:35.495Z,90.13
2019-03-28T01:31:06.671Z,82.40
2019-03-28T01:33:38.685Z,72.10
2019-03-28T01:36:09.716Z,79.07
2019-03-28T01:38:40.759Z,72.20
2019-03-28T01:41:11.867Z,75.30
2019-03-28T01:43:42.925Z,76.40
2019-03-28T01:46:13.986Z,77.17
2019-03-28T01:48:45.020Z,79.60
2019-03-28T01:51:16.078Z,76.40
2019-03-28T01:53:48.156Z,69.87
2019-03-28T01:56:19.280Z,75.10
2019-03-28T01:58:50.296Z,67.10
2019-03-28T02:01:21.367Z,75.87
2019-03-28T02:03:52.464Z,70.70
2019-03-28T02:06:23.508Z,70.17
2019-03-28T02:08:54.574Z,77.37
2019-03-28T02:11:25.655Z,76.13
2019-03-28T02:13:57.652Z,65.33
2019-03-28T02:16:28.772Z,77.07
2019-03-28T02:18:59.798Z,71.90
2019-03-28T02:21:31.056Z,72.77
2019-03-28T02:24:02.052Z,75.23
2019-03-28T02:26:33.150Z,64.73
2019-03-28T02:29:04.236Z,80.83
2019-03-28T02:31:35.308Z,74.77
2019-03-28T02:34:06.399Z,73.60
2019-03-28T02:36:37.494Z,73.83
2019-03-28T02:39:08.664Z,70.30
2019-03-28T02:41:39.692Z,73.30
2019-03-28T02:44:11.897Z,63.20
2019-03-28T02:46:43.220Z,72.73
2019-03-28T02:49:14.339Z,71.80
2019-03-28T02:51:45.456Z,73.60
2019-03-28T02:54:16.620Z,69.37
2019-03-28T02:56:47.702Z,80.13
2019-03-28T02:59:18.769Z,69.63
2019-03-28T03:01:50.942Z,72.17
2019-03-28T03:04:22.116Z,72.90
2019-03-28T03:06:53.422Z,64.33
2019-03-28T03:09:25.638Z,76.33
2019-03-28T03:11:56.882Z,64.57
2019-03-28T03:14:28.025Z,64.37
2019-03-28T03:16:59.023Z,63.40
2019-03-28T03:19:30.132Z,67.20
2019-03-28T03:22:04.925Z,64.70
2019-03-28T03:24:37.037Z,74.10
2019-03-28T03:27:07.989Z,63.00
2019-03-28T03:29:39.020Z,66.77
2019-03-28T03:32:10.019Z,64.77
2019-03-28T03:34:41.053Z,73.10
2019-03-28T03:37:12.042Z,70.10
2019-03-28T03:39:43.057Z,61.60
2019-03-28T03:42:14.117Z,65.80
2019-03-28T03:44:45.138Z,66.37
2019-03-28T03:47:16.208Z,67.40
2019-03-28T03:49:47.213Z,52.63
2019-03-28T03:52:18.192Z,56.70
2019-03-28T03:54:49.225Z,55.67
2019-03-28T03:57:20.262Z,65.07
2019-03-28T03:59:51.444Z,59.20
2019-03-28T04:02:22.472Z,57.23
2019-03-28T04:04:56.717Z,61.87
2019-03-28T04:07:26.306Z,64.37
2019-03-28T04:09:57.511Z,61.37
2019-03-28T04:12:28.570Z,62.13
2019-03-28T04:14:59.650Z,62.07
2019-03-28T04:17:30.810Z,62.43
2019-03-28T04:20:01.850Z,66.93
2019-03-28T04:22:33.051Z,69.23
2019-03-28T04:25:04.270Z,73.17
2019-03-28T04:27:35.279Z,70.13
2019-03-28T04:30:06.710Z,76.73
2019-03-28T04:32:37.859Z,64.73
2019-03-28T04:35:08.897Z,68.00
2019-03-28T04:37:40.079Z,64.83
2019-03-28T04:40:11.377Z,66.53
2019-03-28T04:42:45.718Z,71.73
2019-03-28T04:45:17.780Z,62.93
2019-03-28T04:47:48.870Z,59.27
2019-03-28T04:50:19.935Z,60.07
2019-03-28T04:52:52.860Z,62.13
2019-03-28T04:55:23.705Z,64.73
2019-03-28T04:57:55.412Z,64.83
2019-03-28T05:00:26.607Z,55.53
2019-03-28T05:02:57.826Z,55.87
2019-03-28T05:05:28.864Z,58.90
2019-03-28T05:07:59.977Z,61.23
2019-03-28T05:10:33.121Z,58.57
2019-03-28T05:13:03.835Z,58.63
2019-03-28T05:15:34.901Z,72.80
2019-03-28T05:18:06.377Z,63.77
2019-03-28T05:20:37.503Z,66.20
2019-03-28T05:23:08.717Z,57.20
2019-03-28T05:25:39.791Z,64.63
2019-03-28T05:28:10.828Z,60.10
2019-03-28T05:30:41.900Z,68.60
2019-03-28T05:33:12.919Z,67.33
2019-03-28T05:35:43.971Z,62.80
2019-03-28T05:38:15.057Z,59.47
2019-03-28T05:40:46.194Z,69.93
2019-03-28T05:43:17.308Z,66.67
2019-03-28T05:45:48.474Z,59.63
2019-03-28T05:48:19.504Z,64.17
2019-03-28T05:50:50.590Z,61.77
2019-03-28T05:53:21.696Z,64.17
2019-03-28T05:55:52.812Z,57.60
2019-03-28T05:58:23.875Z,66.87
2019-03-28T06:00:54.888Z,61.17
2019-03-28T06:03:25.916Z,65.90
2019-03-28T06:05:57.142Z,60.40
2019-03-28T06:08:28.300Z,63.90
2019-03-28T06:10:59.515Z,56.90
2019-03-28T06:13:30.516Z,57.40
2019-03-28T06:16:01.566Z,62.50
2019-03-28T06:18:32.660Z,67.53
2019-03-28T06:21:03.756Z,62.07
2019-03-28T06:23:34.856Z,62.13
2019-03-28T06:26:05.919Z,71.57
2019-03-28T06:28:43.720Z,60.30
2019-03-28T06:31:15.042Z,61.00
2019-03-28T06:33:46.115Z,60.70
2019-03-28T06:36:17.401Z,64.63
2019-03-28T06:38:48.618Z,64.47
2019-03-28T06:41:20.023Z,61.47
2019-03-28T06:43:50.935Z,55.97
2019-03-28T06:46:21.983Z,59.53
2019-03-28T06:48:54.166Z,57.53
2019-03-28T06:51:25.284Z,60.33
2019-03-28T06:53:57.244Z,60.93
2019-03-28T06:56:28.584Z,61.03
2019-03-28T06:58:59.869Z,59.03
2019-03-28T07:01:31.091Z,65.63
2019-03-28T07:04:02.449Z,51.93
2019-03-28T07:06:35.367Z,61.27
2019-03-28T07:09:09.195Z,60.50
2019-03-28T07:11:40.751Z,64.30
2019-03-28T07:14:12.045Z,57.37
2019-03-28T07:16:43.293Z,62.17
2019-03-28T07:19:14.571Z,82.80
2019-03-28T07:21:45.893Z,60.77
2019-03-28T07:24:17.052Z,53.43
2019-03-28T07:26:48.295Z,62.40
2019-03-28T07:29:19.338Z,58.57
2019-03-28T07:31:51.611Z,53.97
2019-03-28T07:34:22.687Z,53.77
2019-03-28T07:36:53.942Z,53.23
2019-03-28T07:39:25.078Z,53.10
2019-03-28T07:41:56.176Z,43.53
2019-03-28T07:44:27.372Z,45.00
2019-03-28T07:46:58.655Z,56.73
2019-03-28T07:49:29.862Z,50.50
2019-03-28T07:52:01.487Z,57.23
2019-03-28T07:54:32.788Z,69.70
2019-03-28T07:57:03.843Z,48.77
2019-03-28T07:59:35.210Z,49.83
2019-03-28T08:02:06.406Z,50.60
2019-03-28T08:04:37.478Z,49.77
2019-03-28T08:07:08.634Z,53.70
2019-03-28T08:09:39.669Z,44.60
2019-03-28T08:12:21.807Z,48.47
2019-03-28T08:14:43.739Z,44.90
2019-03-28T08:17:14.980Z,35.07
2019-03-28T08:19:46.228Z,45.40
2019-03-28T08:22:17.367Z,45.50
2019-03-28T08:24:48.577Z,54.27
2019-03-28T08:27:19.637Z,40.53
2019-03-28T08:29:50.796Z,41.53
2019-03-28T08:32:24.961Z,39.20
2019-03-28T08:34:56.570Z,46.13
2019-03-28T08:37:28.079Z,43.73
2019-03-28T08:39:59.684Z,40.30
2019-03-28T08:42:30.853Z,44.73
2019-03-28T08:45:02.065Z,47.13
2019-03-28T08:47:33.309Z,42.00
2019-03-28T08:50:04.691Z,46.20
2019-03-28T08:52:35.980Z,44.47
2019-03-28T08:55:10.009Z,45.17
2019-03-28T08:57:40.521Z,41.37
2019-03-28T09:00:16.351Z,43.90
2019-03-28T09:02:45.787Z,47.73
2019-03-28T09:05:17.057Z,44.37
2019-03-28T09:07:48.453Z,45.57
2019-03-28T09:10:19.812Z,49.93
2019-03-28T09:12:51.367Z,50.40
2019-03-28T09:15:24.302Z,58.47
2019-03-28T09:17:55.572Z,54.60
2019-03-28T09:20:26.759Z,48.30
2019-03-28T09:22:58.064Z,54.47
2019-03-28T09:25:29.266Z,51.57
2019-03-28T09:28:00.356Z,48.20
2019-03-28T09:30:48.655Z,53.57
2019-03-28T09:33:14.943Z,46.83
2019-03-28T09:35:46.283Z,55.40
2019-03-28T09:38:17.732Z,49.60
2019-03-28T09:40:49.023Z,55.33
2019-03-28T09:43:20.227Z,54.57
2019-03-28T09:45:51.403Z,50.57
2019-03-28T09:48:22.446Z,49.67
2019-03-28T09:50:53.797Z,49.33
2019-03-28T09:53:24.982Z,111.20
2019-03-28T09:55:56.057Z,51.13
2019-03-28T09:58:27.531Z,58.80
2019-03-28T10:01:03.104Z,47.63
2019-03-28T10:03:31.677Z,59.90
2019-03-28T10:06:04.501Z,52.77
2019-03-28T10:08:35.697Z,47.77
2019-03-28T10:11:06.962Z,50.70
2019-03-28T10:13:38.509Z,53.17
2019-03-28T10:16:09.776Z,47.07
2019-03-28T10:18:41.142Z,48.20
2019-03-28T10:21:12.509Z,49.43
2019-03-28T10:23:44.440Z,47.57
2019-03-28T10:26:16.283Z,45.80
2019-03-28T10:28:47.912Z,43.33
2019-03-28T10:31:19.281Z,45.57
2019-03-28T10:33:51.051Z,45.10
2019-03-28T10:36:22.165Z,47.30
2019-03-28T10:38:53.384Z,54.33
2019-03-28T10:41:25.988Z,42.30
2019-03-28T10:43:57.506Z,49.90
2019-03-28T10:46:28.622Z,44.43
2019-03-28T10:49:00.156Z,50.13
2019-03-28T10:51:31.177Z,42.50
2019-03-28T10:54:02.379Z,44.40
2019-03-28T10:56:33.418Z,47.83
2019-03-28T10:59:04.817Z,47.13
2019-03-28T11:01:48.085Z,50.20
2019-03-28T11:04:08.802Z,57.27
2019-03-28T11:06:40.212Z,44.60
2019-03-28T11:09:11.457Z,46.90
2019-03-28T11:11:42.824Z,45.43
2019-03-28T11:14:14.196Z,43.77
2019-03-28T11:16:48.204Z,46.17
2019-03-28T11:19:18.482Z,43.97
2019-03-28T11:21:49.869Z,44.60
2019-03-28T11:24:20.918Z,62.50
2019-03-28T11:26:52.603Z,42.53
2019-03-28T11:29:24.073Z,42.03
2019-03-28T11:31:55.349Z,50.67
2019-03-28T11:34:26.514Z,50.73
2019-03-28T11:36:58.517Z,41.77
2019-03-28T11:39:29.797Z,48.20
2019-03-28T11:42:01.993Z,46.30
2019-03-28T11:44:33.567Z,44.47
2019-03-28T11:47:04.799Z,43.20
2019-03-28T11:49:36.239Z,43.03
2019-03-28T11:52:07.312Z,43.43
2019-03-28T11:54:38.673Z,43.80
2019-03-28T11:57:09.742Z,41.90
2019-03-28T11:59:41.168Z,43.50
2019-03-28T12:02:19.644Z,43.77
2019-03-28T12:04:44.946Z,36.17
2019-03-28T12:07:16.090Z,38.90
2019-03-28T12:09:47.484Z,41.77
2019-03-28T12:12:18.455Z,40.03
2019-03-28T12:14:49.570Z,42.47
2019-03-28T12:17:20.565Z,40.30
2019-03-28T12:19:51.922Z,41.50
2019-03-28T12:22:23.495Z,38.60
2019-03-28T12:24:54.969Z,40.20
2019-03-28T12:27:26.263Z,47.43
2019-03-28T12:29:57.581Z,38.23
2019-03-28T12:32:28.794Z,42.23
2019-03-28T12:35:00.377Z,35.00
2019-03-28T12:37:31.603Z,31.17
2019-03-28T12:40:02.981Z,28.67
2019-03-28T12:42:34.443Z,27.20
2019-03-28T12:45:07.255Z,26.00
2019-03-28T12:47:42.566Z,26.93
2019-03-28T12:50:12.357Z,23.37
2019-03-28T12:52:44.872Z,23.23
2019-03-28T12:55:16.971Z,16.37
2019-03-28T12:57:48.555Z,15.83
2019-03-28T13:00:24.763Z,13.47
2019-03-28T13:02:56.046Z,14.03
2019-03-28T13:05:28.022Z,24.30
2019-03-28T13:07:59.311Z,24.87
2019-03-28T13:10:30.663Z,20.23
2019-03-28T13:13:01.891Z,13.67
2019-03-28T13:15:32.922Z,15.37
2019-03-28T13:18:04.399Z,15.07
2019-03-28T13:20:35.666Z,17.90
2019-03-28T13:23:06.767Z,17.43
2019-03-28T13:25:37.961Z,18.60
2019-03-28T13:28:09.213Z,21.93
2019-03-28T13:30:40.507Z,23.17
2019-03-28T13:33:12.141Z,15.77
2019-03-28T13:35:43.346Z,18.77
2019-03-28T13:38:14.830Z,18.30
2019-03-28T13:40:46.085Z,19.93
2019-03-28T13:43:17.242Z,18.77
2019-03-28T13:45:48.644Z,18.73
2019-03-28T13:48:20.807Z,19.73
2019-03-28T13:50:54.685Z,18.60
2019-03-28T13:53:38.283Z,19.93
2019-03-28T13:55:58.444Z,35.83
2019-03-28T13:58:29.695Z,24.33
2019-03-28T14:01:00.954Z,22.53
2019-03-28T14:03:32.452Z,21.87
2019-03-28T14:06:03.868Z,23.10
2019-03-28T14:08:34.869Z,19.80
2019-03-28T14:11:06.174Z,18.37
2019-03-28T14:13:37.198Z,18.17
2019-03-28T14:16:08.449Z,16.97
2019-03-28T14:18:39.549Z,19.47
2019-03-28T14:21:10.753Z,21.43
2019-03-28T14:23:42.244Z,20.43
2019-03-28T14:26:13.353Z,17.07
2019-03-28T14:28:44.532Z,16.27
2019-03-28T14:31:16.647Z,21.07
2019-03-28T14:33:47.949Z,23.93
2019-03-28T14:36:19.161Z,25.97
2019-03-28T14:38:50.721Z,24.00
2019-03-28T14:41:22.537Z,43.97
2019-03-28T14:43:53.727Z,28.00
2019-03-28T14:46:25.122Z,21.93
2019-03-28T14:48:56.395Z,25.67
2019-03-28T14:51:27.508Z,23.67
2019-03-28T14:53:58.728Z,21.10
2019-03-28T14:56:30.059Z,26.23
2019-03-28T14:59:02.238Z,24.60
2019-03-28T15:01:33.807Z,19.93
2019-03-28T15:04:05.149Z,17.97
2019-03-28T15:06:36.997Z,19.23
2019-03-28T15:09:09.840Z,20.20
2019-03-28T15:11:41.266Z,13.97
2019-03-28T15:14:12.807Z,20.67
2019-03-28T15:16:43.882Z,22.13
2019-03-28T15:19:14.990Z,17.67
2019-03-28T15:21:46.146Z,20.30
2019-03-28T15:24:17.572Z,20.97
2019-03-28T15:26:48.653Z,28.30
2019-03-28T15:29:19.990Z,26.67
2019-03-28T15:31:51.278Z,18.50
2019-03-28T15:34:22.503Z,46.17
2019-03-28T15:36:53.887Z,25.10
2019-03-28T15:39:25.477Z,18.90
2019-03-28T15:41:56.659Z,30.67
2019-03-28T15:44:27.945Z,23.53
2019-03-28T15:46:59.715Z,26.50
2019-03-28T15:49:30.911Z,24.27
2019-03-28T15:52:03.386Z,21.77
2019-03-28T15:54:35.887Z,32.53
2019-03-28T15:57:07.462Z,18.93
2019-03-28T15:59:38.621Z,32.83
2019-03-28T16:02:10.005Z,25.27
2019-03-28T16:04:41.212Z,39.50
2019-03-28T16:07:12.333Z,24.07
2019-03-28T16:09:43.725Z,60.40
2019-03-28T16:12:14.768Z,39.33
2019-03-28T16:14:45.925Z,99.83
2019-03-28T16:17:17.209Z,89.57
2019-03-28T16:19:48.480Z,48.63
2019-03-28T16:22:19.697Z,23.77
2019-03-28T16:24:51.833Z,35.63
2019-03-28T16:27:23.200Z,38.17
2019-03-28T16:29:54.581Z,148.70
2019-03-28T16:32:25.975Z,31.93
2019-03-28T16:34:57.404Z,26.93
2019-03-28T16:37:28.564Z,22.77
2019-03-28T16:39:59.812Z,21.10
2019-03-28T16:42:31.134Z,17.90
2019-03-28T16:45:05.109Z,17.93
2019-03-28T16:47:39.089Z,19.60
2019-03-28T16:50:10.610Z,16.37
2019-03-28T16:52:42.009Z,17.93
2019-03-28T16:55:25.831Z,18.17
2019-03-28T16:57:46.423Z,23.77
2019-03-28T17:00:18.608Z,18.87
2019-03-28T17:02:49.948Z,20.10
2019-03-28T17:05:21.032Z,19.63
2019-03-28T17:07:52.681Z,19.50
2019-03-28T17:10:55.676Z,15.97
2019-03-28T17:13:27.483Z,18.10
2019-03-28T17:15:58.921Z,18.53
2019-03-28T17:18:31.234Z,20.37
2019-03-28T17:21:03.181Z,20.73
2019-03-28T17:23:34.556Z,23.33
2019-03-28T17:26:06.418Z,26.80
2019-03-28T17:28:38.063Z,29.77
2019-03-28T17:31:09.297Z,33.63
2019-03-28T17:33:40.805Z,34.77
2019-03-28T17:36:12.776Z,87.53
2019-03-28T17:38:44.242Z,61.23
2019-03-28T17:41:17.823Z,61.00
2019-03-28T17:43:49.276Z,86.67
2019-03-28T17:46:21.924Z,43.10
2019-03-28T17:48:53.270Z,31.17
2019-03-28T17:51:24.773Z,30.57
2019-03-28T17:53:56.390Z,32.03
2019-03-28T17:56:28.888Z,31.67
2019-03-28T17:59:00.157Z,22.20
2019-03-28T18:01:31.212Z,38.03
2019-03-28T18:04:02.546Z,31.87
2019-03-28T18:06:34.911Z,37.23
2019-03-28T18:09:08.134Z,39.80
2019-03-28T18:11:39.654Z,47.13
2019-03-28T18:14:12.203Z,41.57
2019-03-28T18:16:43.195Z,45.63
2019-03-28T18:19:16.215Z,52.13
2019-03-28T18:21:47.786Z,56.23
2019-03-28T18:24:18.992Z,55.50
2019-03-28T18:26:50.188Z,74.77
2019-03-28T18:29:21.835Z,66.00
2019-03-28T18:31:53.199Z,66.77
2019-03-28T18:34:24.666Z,61.40
2019-03-28T18:36:55.949Z,77.13
2019-03-28T18:39:27.270Z,80.77
2019-03-28T18:41:58.627Z,82.73
2019-03-28T18:44:29.929Z,95.70
2019-03-28T18:47:01.336Z,97.83
2019-03-28T18:49:32.996Z,100.33
2019-03-28T18:52:07.245Z,88.40
2019-03-28T18:54:37.683Z,100.10
2019-03-28T18:57:08.923Z,100.40
2019-03-28T18:59:40.171Z,160.07
2019-03-28T19:02:11.417Z,135.17
2019-03-28T19:04:42.499Z,139.83
2019-03-28T19:07:13.880Z,126.40
2019-03-28T19:09:45.288Z,107.30
2019-03-28T19:12:19.897Z,107.10
2019-03-28T19:14:51.161Z,118.90
2019-03-28T19:17:24.392Z,115.67
2019-03-28T19:19:59.207Z,136.97
2019-03-28T19:22:28.778Z,131.53
2019-03-28T19:25:00.985Z,101.70
2019-03-28T19:27:32.538Z,103.47
2019-03-28T19:30:04.485Z,118.90
2019-03-28T19:32:35.753Z,115.67
2019-03-28T19:35:08.171Z,114.73
2019-03-28T19:37:40.007Z,111.37
2019-03-28T19:40:13.027Z,102.30
2019-03-28T19:42:44.408Z,104.03
2019-03-28T19:45:19.190Z,130.80
2019-03-28T19:47:50.401Z,110.43
2019-03-28T19:50:29.461Z,112.90
2019-03-28T19:53:00.960Z,92.43
2019-03-28T19:55:32.453Z,118.03
2019-03-28T19:58:04.858Z,106.00
2019-03-28T20:00:37.022Z,126.90
2019-03-28T20:03:08.272Z,138.57
2019-03-28T20:05:47.986Z,177.13
2019-03-28T20:08:16.437Z,133.33
2019-03-28T20:10:47.832Z,121.23
2019-03-28T20:13:19.275Z,120.13
2019-03-28T20:15:50.805Z,122.23
2019-03-28T20:18:23.151Z,113.30
2019-03-28T20:20:55.815Z,117.33
2019-03-28T20:23:27.452Z,116.47
2019-03-28T20:25:59.001Z,124.03
2019-03-28T20:28:30.680Z,108.80
2019-03-28T20:31:01.864Z,113.67
2019-03-28T20:33:33.270Z,123.73
2019-03-28T20:36:29.968Z,131.00
2019-03-28T20:38:39.066Z,115.57
2019-03-28T20:41:12.314Z,114.70
2019-03-28T20:43:44.550Z,118.23
2019-03-28T20:46:15.825Z,116.63
2019-03-28T20:48:47.929Z,115.13
2019-03-28T20:51:24.473Z,107.47
2019-03-28T20:53:54.423Z,127.67
2019-03-28T20:56:32.509Z,116.83
2019-03-28T20:59:04.076Z,129.67
2019-03-28T21:01:38.484Z,123.17
2019-03-28T21:04:09.534Z,120.63
2019-03-28T21:06:41.400Z,131.63
2019-03-28T21:09:12.549Z,135.53
2019-03-28T21:11:43.670Z,137.00
2019-03-28T21:14:15.139Z,133.33
2019-03-28T21:16:46.260Z,135.00
2019-03-28T21:19:18.951Z,128.30
2019-03-28T21:21:50.605Z,135.33
2019-03-28T21:24:22.200Z,146.60
2019-03-28T21:26:53.471Z,179.70
2019-03-28T21:29:27.079Z,151.70
2019-03-28T21:31:58.437Z,142.10
2019-03-28T21:34:29.923Z,182.87
2019-03-28T21:37:01.094Z,168.93
2019-03-28T21:39:32.486Z,161.47
2019-03-28T21:42:06.962Z,156.50
2019-03-28T21:44:37.789Z,160.17
2019-03-28T21:47:09.443Z,147.27
2019-03-28T21:49:40.624Z,140.70
2019-03-28T21:52:11.991Z,143.47
2019-03-28T21:54:43.247Z,147.67
2019-03-28T21:57:14.804Z,155.77
2019-03-28T21:59:46.448Z,174.47
2019-03-28T22:02:17.553Z,176.20
2019-03-28T22:04:49.020Z,157.10
2019-03-28T22:07:20.127Z,162.53
2019-03-28T22:09:51.585Z,155.60
2019-03-28T22:12:23.051Z,147.50
2019-03-28T22:14:54.395Z,159.10
2019-03-28T22:17:27.039Z,165.57
2019-03-28T22:19:58.634Z,178.73
2019-03-28T22:22:29.885Z,189.07
2019-03-28T22:25:01.559Z,177.17
2019-03-28T22:27:33.688Z,166.17
2019-03-28T22:30:05.518Z,176.50
2019-03-28T22:32:37.550Z,172.17
2019-03-28T22:35:09.075Z,174.97
2019-03-28T22:37:40.233Z,171.70
2019-03-28T22:40:12.232Z,165.83
2019-03-28T22:42:43.386Z,184.67
2019-03-28T22:45:15.074Z,204.20
2019-03-28T22:47:46.401Z,189.60
2019-03-28T22:50:17.440Z,191.63
2019-03-28T22:52:48.763Z,176.27
2019-03-28T22:55:19.861Z,185.43
2019-03-28T22:57:54.030Z,175.07
2019-03-28T23:00:39.655Z,171.77
2019-03-28T23:03:12.400Z,171.20
2019-03-28T23:05:43.716Z,173.47
2019-03-28T23:08:14.786Z,165.97
2019-03-28T23:10:46.055Z,172.17
2019-03-28T23:13:17.155Z,182.57
2019-03-28T23:15:50.080Z,169.83
2019-03-28T23:18:21.589Z,188.23
2019-03-28T23:20:52.629Z,156.83
2019-03-28T23:23:23.659Z,189.63
2019-03-28T23:25:54.638Z,156.93
2019-03-28T23:28:25.779Z,180.67
2019-03-28T23:30:56.856Z,196.73
2019-03-28T23:33:28.053Z,177.57
2019-03-28T23:35:59.381Z,176.50
2019-03-28T23:38:30.555Z,176.17
2019-03-28T23:41:01.824Z,182.90
2019-03-28T23:43:33.027Z,156.97
2019-03-28T23:46:05.237Z,159.93
2019-03-28T23:48:36.592Z,165.07
2019-03-28T23:51:07.796Z,194.23
2019-03-28T23:53:38.976Z,194.63
2019-03-28T23:56:10.764Z,182.10
2019-03-28T23:58:42.179Z,190.60
